sensor_id;sensor_type;location;lat;lon;timestamp;P1;durP1;ratioP1;P2;durP2;ratioP2
10882;SDS011;5494;51.796;10.952;2022-07-29T00:01:40;4.77;;;2.13;;
10882;SDS011;5494;51.796;10.952;2022-07-29T00:04:10;2.00;;;1.33;;
10882;SDS011;5494;51.796;10.952;2022-07-29T00:06:40;4.57;;;1.30;;
10882;SDS011;5494;51.796;10.952;2022-07-29T00:09:10;2.10;;;1.30;;
10882;SDS011;5494;51.796;10.952;2022-07-29T00:11:38;3.60;;;1.40;;
10882;SDS011;5494;51.796;10.952;2022-07-29T00:14:07;3.10;;;1.60;;
10882;SDS011;5494;51.796;10.952;2022-07-29T00:16:36;4.90;;;1.37;;
10882;SDS011;5494;51.796;10.952;2022-07-29T00:19:05;6.10;;;1.50;;
10882;SDS011;5494;51.796;10.952;2022-07-29T00:21:34;2.47;;;1.17;;
10882;SDS011;5494;51.796;10.952;2022-07-29T00:24:02;2.67;;;1.30;;
10882;SDS011;5494;51.796;10.952;2022-07-29T00:26:32;2.33;;;0.93;;
10882;SDS011;5494;51.796;10.952;2022-07-29T00:29:02;5.10;;;1.67;;
10882;SDS011;5494;51.796;10.952;2022-07-29T00:31:51;4.40;;;1.20;;
10882;SDS011;5494;51.796;10.952;2022-07-29T00:34:20;2.17;;;1.27;;
10882;SDS011;5494;51.796;10.952;2022-07-29T00:37:06;2.40;;;1.30;;
10882;SDS011;5494;51.796;10.952;2022-07-29T00:39:35;2.87;;;1.60;;
10882;SDS011;5494;51.796;10.952;2022-07-29T00:42:05;4.93;;;1.27;;
10882;SDS011;5494;51.796;10.952;2022-07-29T00:44:36;2.53;;;1.23;;
10882;SDS011;5494;51.796;10.952;2022-07-29T00:47:06;1.90;;;1.20;;
10882;SDS011;5494;51.796;10.952;2022-07-29T00:49:35;2.83;;;1.37;;
10882;SDS011;5494;51.796;10.952;2022-07-29T00:52:07;3.90;;;1.43;;
10882;SDS011;5494;51.796;10.952;2022-07-29T00:54:37;2.07;;;1.00;;
10882;SDS011;5494;51.796;10.952;2022-07-29T00:57:12;8.30;;;1.70;;
10882;SDS011;5494;51.796;10.952;2022-07-29T00:59:40;1.63;;;1.20;;
10882;SDS011;5494;51.796;10.952;2022-07-29T01:02:09;2.10;;;1.20;;
10882;SDS011;5494;51.796;10.952;2022-07-29T01:04:37;2.77;;;1.23;;
10882;SDS011;5494;51.796;10.952;2022-07-29T01:07:07;3.97;;;1.20;;
10882;SDS011;5494;51.796;10.952;2022-07-29T01:09:36;2.43;;;1.33;;
10882;SDS011;5494;51.796;10.952;2022-07-29T01:12:15;5.83;;;1.40;;
10882;SDS011;5494;51.796;10.952;2022-07-29T01:14:50;3.97;;;1.40;;
10882;SDS011;5494;51.796;10.952;2022-07-29T01:17:23;2.47;;;1.20;;
10882;SDS011;5494;51.796;10.952;2022-07-29T01:19:58;1.77;;;1.00;;
10882;SDS011;5494;51.796;10.952;2022-07-29T01:22:36;3.37;;;1.43;;
10882;SDS011;5494;51.796;10.952;2022-07-29T01:25:30;3.40;;;1.13;;
10882;SDS011;5494;51.796;10.952;2022-07-29T01:28:44;2.73;;;1.17;;
10882;SDS011;5494;51.796;10.952;2022-07-29T01:31:25;2.80;;;0.90;;
10882;SDS011;5494;51.796;10.952;2022-07-29T01:34:08;3.90;;;1.20;;
10882;SDS011;5494;51.796;10.952;2022-07-29T01:36:48;3.50;;;1.43;;
10882;SDS011;5494;51.796;10.952;2022-07-29T01:39:26;2.40;;;1.27;;
10882;SDS011;5494;51.796;10.952;2022-07-29T01:42:02;2.93;;;1.23;;
10882;SDS011;5494;51.796;10.952;2022-07-29T01:44:53;2.00;;;1.30;;
10882;SDS011;5494;51.796;10.952;2022-07-29T01:47:29;2.60;;;1.30;;
10882;SDS011;5494;51.796;10.952;2022-07-29T01:50:06;2.83;;;1.20;;
10882;SDS011;5494;51.796;10.952;2022-07-29T01:52:42;2.03;;;1.20;;
10882;SDS011;5494;51.796;10.952;2022-07-29T01:55:17;3.70;;;1.33;;
10882;SDS011;5494;51.796;10.952;2022-07-29T01:57:50;2.50;;;1.33;;
10882;SDS011;5494;51.796;10.952;2022-07-29T02:00:21;5.67;;;1.50;;
10882;SDS011;5494;51.796;10.952;2022-07-29T02:02:51;2.30;;;1.20;;
10882;SDS011;5494;51.796;10.952;2022-07-29T02:05:23;5.17;;;1.63;;
10882;SDS011;5494;51.796;10.952;2022-07-29T02:07:57;4.60;;;1.30;;
10882;SDS011;5494;51.796;10.952;2022-07-29T02:10:29;2.80;;;1.33;;
10882;SDS011;5494;51.796;10.952;2022-07-29T02:13:00;2.23;;;1.10;;
10882;SDS011;5494;51.796;10.952;2022-07-29T02:15:34;2.60;;;1.20;;
10882;SDS011;5494;51.796;10.952;2022-07-29T02:18:04;2.50;;;1.30;;
10882;SDS011;5494;51.796;10.952;2022-07-29T02:20:37;6.73;;;1.10;;
10882;SDS011;5494;51.796;10.952;2022-07-29T02:23:08;4.40;;;1.60;;
10882;SDS011;5494;51.796;10.952;2022-07-29T02:25:40;3.93;;;1.60;;
10882;SDS011;5494;51.796;10.952;2022-07-29T02:28:10;1.50;;;1.17;;
10882;SDS011;5494;51.796;10.952;2022-07-29T02:30:43;3.13;;;1.33;;
10882;SDS011;5494;51.796;10.952;2022-07-29T02:33:14;2.07;;;1.50;;
10882;SDS011;5494;51.796;10.952;2022-07-29T02:35:46;3.60;;;1.30;;
10882;SDS011;5494;51.796;10.952;2022-07-29T02:38:16;3.40;;;1.40;;
10882;SDS011;5494;51.796;10.952;2022-07-29T02:41:08;2.33;;;1.37;;
10882;SDS011;5494;51.796;10.952;2022-07-29T02:43:39;4.20;;;1.30;;
10882;SDS011;5494;51.796;10.952;2022-07-29T02:46:13;3.07;;;1.33;;
10882;SDS011;5494;51.796;10.952;2022-07-29T02:48:56;4.17;;;1.70;;
10882;SDS011;5494;51.796;10.952;2022-07-29T02:51:33;2.17;;;1.20;;
10882;SDS011;5494;51.796;10.952;2022-07-29T02:54:11;4.03;;;1.20;;
10882;SDS011;5494;51.796;10.952;2022-07-29T02:56:50;2.80;;;1.20;;
10882;SDS011;5494;51.796;10.952;2022-07-29T02:59:23;3.00;;;1.13;;
10882;SDS011;5494;51.796;10.952;2022-07-29T03:01:56;4.43;;;1.70;;
10882;SDS011;5494;51.796;10.952;2022-07-29T03:04:27;2.67;;;1.20;;
10882;SDS011;5494;51.796;10.952;2022-07-29T03:06:59;2.40;;;1.37;;
10882;SDS011;5494;51.796;10.952;2022-07-29T03:09:29;3.90;;;1.10;;
10882;SDS011;5494;51.796;10.952;2022-07-29T03:11:59;1.60;;;1.30;;
10882;SDS011;5494;51.796;10.952;2022-07-29T03:14:29;3.73;;;1.40;;
10882;SDS011;5494;51.796;10.952;2022-07-29T03:17:01;3.23;;;1.30;;
10882;SDS011;5494;51.796;10.952;2022-07-29T03:19:31;3.43;;;1.50;;
10882;SDS011;5494;51.796;10.952;2022-07-29T03:22:00;2.73;;;1.73;;
10882;SDS011;5494;51.796;10.952;2022-07-29T03:24:30;3.67;;;1.70;;
10882;SDS011;5494;51.796;10.952;2022-07-29T03:27:01;2.90;;;1.23;;
10882;SDS011;5494;51.796;10.952;2022-07-29T03:29:31;5.33;;;1.60;;
10882;SDS011;5494;51.796;10.952;2022-07-29T03:32:03;4.90;;;1.50;;
10882;SDS011;5494;51.796;10.952;2022-07-29T03:34:35;3.10;;;1.40;;
10882;SDS011;5494;51.796;10.952;2022-07-29T03:37:05;4.43;;;1.50;;
10882;SDS011;5494;51.796;10.952;2022-07-29T03:39:35;5.13;;;1.40;;
10882;SDS011;5494;51.796;10.952;2022-07-29T03:42:10;6.87;;;1.43;;
10882;SDS011;5494;51.796;10.952;2022-07-29T03:44:43;3.30;;;1.40;;
10882;SDS011;5494;51.796;10.952;2022-07-29T03:47:17;3.23;;;1.57;;
10882;SDS011;5494;51.796;10.952;2022-07-29T03:50:12;3.23;;;1.47;;
10882;SDS011;5494;51.796;10.952;2022-07-29T03:52:42;3.93;;;1.30;;
10882;SDS011;5494;51.796;10.952;2022-07-29T03:55:11;4.03;;;1.40;;
10882;SDS011;5494;51.796;10.952;2022-07-29T03:57:41;3.17;;;1.60;;
10882;SDS011;5494;51.796;10.952;2022-07-29T04:00:11;7.87;;;1.70;;
10882;SDS011;5494;51.796;10.952;2022-07-29T04:02:44;4.03;;;1.50;;
10882;SDS011;5494;51.796;10.952;2022-07-29T04:05:16;1.40;;;1.20;;
10882;SDS011;5494;51.796;10.952;2022-07-29T04:07:45;2.87;;;1.30;;
10882;SDS011;5494;51.796;10.952;2022-07-29T04:10:15;3.27;;;1.40;;
10882;SDS011;5494;51.796;10.952;2022-07-29T04:12:58;2.43;;;1.40;;
10882;SDS011;5494;51.796;10.952;2022-07-29T04:15:27;2.90;;;1.50;;
10882;SDS011;5494;51.796;10.952;2022-07-29T04:17:58;2.70;;;1.50;;
10882;SDS011;5494;51.796;10.952;2022-07-29T04:20:27;1.50;;;1.30;;
10882;SDS011;5494;51.796;10.952;2022-07-29T04:22:56;3.20;;;1.30;;
10882;SDS011;5494;51.796;10.952;2022-07-29T04:25:24;2.97;;;1.30;;
10882;SDS011;5494;51.796;10.952;2022-07-29T04:27:53;2.90;;;1.50;;
10882;SDS011;5494;51.796;10.952;2022-07-29T04:30:30;3.40;;;2.00;;
10882;SDS011;5494;51.796;10.952;2022-07-29T04:33:02;6.57;;;1.60;;
10882;SDS011;5494;51.796;10.952;2022-07-29T04:35:33;4.47;;;1.60;;
10882;SDS011;5494;51.796;10.952;2022-07-29T04:38:16;4.60;;;1.60;;
10882;SDS011;5494;51.796;10.952;2022-07-29T04:40:45;1.60;;;1.27;;
10882;SDS011;5494;51.796;10.952;2022-07-29T04:43:15;2.90;;;1.30;;
10882;SDS011;5494;51.796;10.952;2022-07-29T04:45:48;2.70;;;1.60;;
10882;SDS011;5494;51.796;10.952;2022-07-29T04:48:19;6.03;;;1.67;;
10882;SDS011;5494;51.796;10.952;2022-07-29T04:50:54;2.20;;;1.40;;
10882;SDS011;5494;51.796;10.952;2022-07-29T04:53:24;4.33;;;2.50;;
10882;SDS011;5494;51.796;10.952;2022-07-29T04:55:52;3.93;;;1.50;;
10882;SDS011;5494;51.796;10.952;2022-07-29T04:58:21;3.97;;;1.37;;
10882;SDS011;5494;51.796;10.952;2022-07-29T05:00:50;2.43;;;1.30;;
10882;SDS011;5494;51.796;10.952;2022-07-29T05:03:20;5.10;;;1.60;;
10882;SDS011;5494;51.796;10.952;2022-07-29T05:05:48;2.70;;;1.53;;
10882;SDS011;5494;51.796;10.952;2022-07-29T05:08:17;4.77;;;1.80;;
10882;SDS011;5494;51.796;10.952;2022-07-29T05:10:45;3.03;;;1.67;;
10882;SDS011;5494;51.796;10.952;2022-07-29T05:13:14;5.93;;;2.00;;
10882;SDS011;5494;51.796;10.952;2022-07-29T05:15:42;3.00;;;1.57;;
10882;SDS011;5494;51.796;10.952;2022-07-29T05:18:11;3.77;;;1.40;;
10882;SDS011;5494;51.796;10.952;2022-07-29T05:20:42;2.30;;;1.40;;
10882;SDS011;5494;51.796;10.952;2022-07-29T05:23:10;5.10;;;2.10;;
10882;SDS011;5494;51.796;10.952;2022-07-29T05:25:40;3.70;;;1.63;;
10882;SDS011;5494;51.796;10.952;2022-07-29T05:28:10;4.87;;;1.60;;
10882;SDS011;5494;51.796;10.952;2022-07-29T05:30:39;2.50;;;1.63;;
10882;SDS011;5494;51.796;10.952;2022-07-29T05:33:08;3.03;;;2.17;;
10882;SDS011;5494;51.796;10.952;2022-07-29T05:35:57;4.57;;;1.60;;
10882;SDS011;5494;51.796;10.952;2022-07-29T05:38:26;2.97;;;1.60;;
10882;SDS011;5494;51.796;10.952;2022-07-29T05:40:56;2.13;;;1.50;;
10882;SDS011;5494;51.796;10.952;2022-07-29T05:43:26;4.80;;;1.60;;
10882;SDS011;5494;51.796;10.952;2022-07-29T05:45:55;5.57;;;2.00;;
10882;SDS011;5494;51.796;10.952;2022-07-29T05:48:24;3.60;;;1.67;;
10882;SDS011;5494;51.796;10.952;2022-07-29T05:50:53;3.40;;;1.63;;
10882;SDS011;5494;51.796;10.952;2022-07-29T05:53:24;5.10;;;1.70;;
10882;SDS011;5494;51.796;10.952;2022-07-29T05:55:52;3.10;;;1.70;;
10882;SDS011;5494;51.796;10.952;2022-07-29T05:58:21;3.53;;;1.70;;
10882;SDS011;5494;51.796;10.952;2022-07-29T06:00:50;2.40;;;1.50;;
10882;SDS011;5494;51.796;10.952;2022-07-29T06:03:19;2.50;;;1.43;;
10882;SDS011;5494;51.796;10.952;2022-07-29T06:05:47;4.60;;;2.00;;
10882;SDS011;5494;51.796;10.952;2022-07-29T06:08:16;4.23;;;2.17;;
10882;SDS011;5494;51.796;10.952;2022-07-29T06:10:46;3.63;;;1.60;;
10882;SDS011;5494;51.796;10.952;2022-07-29T06:13:14;2.13;;;1.40;;
10882;SDS011;5494;51.796;10.952;2022-07-29T06:15:43;3.17;;;1.80;;
10882;SDS011;5494;51.796;10.952;2022-07-29T06:18:12;3.20;;;1.40;;
10882;SDS011;5494;51.796;10.952;2022-07-29T06:20:40;3.23;;;2.10;;
10882;SDS011;5494;51.796;10.952;2022-07-29T06:23:09;5.83;;;1.73;;
10882;SDS011;5494;51.796;10.952;2022-07-29T06:25:39;5.57;;;1.93;;
10882;SDS011;5494;51.796;10.952;2022-07-29T06:28:09;4.03;;;1.70;;
10882;SDS011;5494;51.796;10.952;2022-07-29T06:30:38;4.60;;;2.10;;
10882;SDS011;5494;51.796;10.952;2022-07-29T06:33:07;8.43;;;1.90;;
10882;SDS011;5494;51.796;10.952;2022-07-29T06:35:35;4.73;;;1.53;;
10882;SDS011;5494;51.796;10.952;2022-07-29T06:38:11;4.30;;;1.60;;
10882;SDS011;5494;51.796;10.952;2022-07-29T06:40:59;5.20;;;1.90;;
10882;SDS011;5494;51.796;10.952;2022-07-29T06:43:31;6.47;;;2.00;;
10882;SDS011;5494;51.796;10.952;2022-07-29T06:46:17;5.10;;;2.00;;
10882;SDS011;5494;51.796;10.952;2022-07-29T06:48:48;6.20;;;1.50;;
10882;SDS011;5494;51.796;10.952;2022-07-29T06:51:19;6.33;;;1.83;;
10882;SDS011;5494;51.796;10.952;2022-07-29T06:53:49;4.00;;;1.60;;
10882;SDS011;5494;51.796;10.952;2022-07-29T06:56:28;4.77;;;2.00;;
10882;SDS011;5494;51.796;10.952;2022-07-29T06:59:08;4.70;;;1.93;;
10882;SDS011;5494;51.796;10.952;2022-07-29T07:01:40;3.97;;;1.70;;
10882;SDS011;5494;51.796;10.952;2022-07-29T07:04:10;3.10;;;1.60;;
10882;SDS011;5494;51.796;10.952;2022-07-29T07:06:41;3.87;;;1.80;;
10882;SDS011;5494;51.796;10.952;2022-07-29T07:09:09;5.53;;;1.70;;
10882;SDS011;5494;51.796;10.952;2022-07-29T07:11:37;3.90;;;1.57;;
10882;SDS011;5494;51.796;10.952;2022-07-29T07:14:08;5.60;;;1.67;;
10882;SDS011;5494;51.796;10.952;2022-07-29T07:16:36;5.03;;;2.00;;
10882;SDS011;5494;51.796;10.952;2022-07-29T07:19:05;3.33;;;2.03;;
10882;SDS011;5494;51.796;10.952;2022-07-29T07:21:34;5.30;;;2.40;;
10882;SDS011;5494;51.796;10.952;2022-07-29T07:24:03;8.40;;;1.93;;
10882;SDS011;5494;51.796;10.952;2022-07-29T07:26:32;3.47;;;1.90;;
10882;SDS011;5494;51.796;10.952;2022-07-29T07:29:01;7.43;;;1.90;;
10882;SDS011;5494;51.796;10.952;2022-07-29T07:31:31;5.07;;;2.07;;
10882;SDS011;5494;51.796;10.952;2022-07-29T07:33:59;3.70;;;1.97;;
10882;SDS011;5494;51.796;10.952;2022-07-29T07:36:27;5.03;;;2.30;;
10882;SDS011;5494;51.796;10.952;2022-07-29T07:38:56;5.97;;;2.00;;
10882;SDS011;5494;51.796;10.952;2022-07-29T07:41:24;5.30;;;2.03;;
10882;SDS011;5494;51.796;10.952;2022-07-29T07:43:58;27.27;;;4.47;;
10882;SDS011;5494;51.796;10.952;2022-07-29T07:46:27;4.70;;;2.10;;
10882;SDS011;5494;51.796;10.952;2022-07-29T07:48:56;4.10;;;1.83;;
10882;SDS011;5494;51.796;10.952;2022-07-29T07:51:25;3.27;;;1.77;;
10882;SDS011;5494;51.796;10.952;2022-07-29T07:53:54;5.03;;;2.20;;
10882;SDS011;5494;51.796;10.952;2022-07-29T07:56:23;4.07;;;2.00;;
10882;SDS011;5494;51.796;10.952;2022-07-29T07:58:51;2.90;;;1.67;;
10882;SDS011;5494;51.796;10.952;2022-07-29T08:01:20;7.63;;;2.30;;
10882;SDS011;5494;51.796;10.952;2022-07-29T08:03:49;7.70;;;1.93;;
10882;SDS011;5494;51.796;10.952;2022-07-29T08:06:19;2.80;;;1.80;;
10882;SDS011;5494;51.796;10.952;2022-07-29T08:08:47;7.23;;;2.00;;
10882;SDS011;5494;51.796;10.952;2022-07-29T08:11:17;5.27;;;2.30;;
10882;SDS011;5494;51.796;10.952;2022-07-29T08:13:48;3.43;;;2.00;;
10882;SDS011;5494;51.796;10.952;2022-07-29T08:16:16;5.17;;;1.77;;
10882;SDS011;5494;51.796;10.952;2022-07-29T08:18:46;4.27;;;2.00;;
10882;SDS011;5494;51.796;10.952;2022-07-29T08:21:16;4.87;;;2.13;;
10882;SDS011;5494;51.796;10.952;2022-07-29T08:23:46;4.77;;;1.93;;
10882;SDS011;5494;51.796;10.952;2022-07-29T08:26:28;6.13;;;2.70;;
10882;SDS011;5494;51.796;10.952;2022-07-29T08:28:56;9.00;;;2.27;;
10882;SDS011;5494;51.796;10.952;2022-07-29T08:31:26;3.23;;;1.80;;
10882;SDS011;5494;51.796;10.952;2022-07-29T08:33:54;4.70;;;1.90;;
10882;SDS011;5494;51.796;10.952;2022-07-29T08:36:26;5.00;;;2.27;;
10882;SDS011;5494;51.796;10.952;2022-07-29T08:38:56;4.60;;;2.10;;
10882;SDS011;5494;51.796;10.952;2022-07-29T08:41:26;4.70;;;2.20;;
10882;SDS011;5494;51.796;10.952;2022-07-29T08:43:55;3.33;;;1.80;;
10882;SDS011;5494;51.796;10.952;2022-07-29T08:46:23;8.40;;;2.20;;
10882;SDS011;5494;51.796;10.952;2022-07-29T08:48:52;4.90;;;2.20;;
10882;SDS011;5494;51.796;10.952;2022-07-29T08:51:22;5.03;;;2.00;;
10882;SDS011;5494;51.796;10.952;2022-07-29T08:53:57;5.00;;;2.53;;
10882;SDS011;5494;51.796;10.952;2022-07-29T08:56:26;7.87;;;2.43;;
10882;SDS011;5494;51.796;10.952;2022-07-29T08:58:58;4.60;;;2.33;;
10882;SDS011;5494;51.796;10.952;2022-07-29T09:01:33;5.63;;;2.23;;
10882;SDS011;5494;51.796;10.952;2022-07-29T09:04:11;5.40;;;2.10;;
10882;SDS011;5494;51.796;10.952;2022-07-29T09:06:46;7.30;;;2.20;;
10882;SDS011;5494;51.796;10.952;2022-07-29T09:09:20;3.57;;;2.27;;
10882;SDS011;5494;51.796;10.952;2022-07-29T09:11:49;8.20;;;2.30;;
10882;SDS011;5494;51.796;10.952;2022-07-29T09:14:19;5.53;;;2.60;;
10882;SDS011;5494;51.796;10.952;2022-07-29T09:16:48;7.00;;;2.30;;
10882;SDS011;5494;51.796;10.952;2022-07-29T09:19:21;4.13;;;2.23;;
10882;SDS011;5494;51.796;10.952;2022-07-29T09:21:55;3.67;;;2.10;;
10882;SDS011;5494;51.796;10.952;2022-07-29T09:24:37;4.57;;;2.00;;
10882;SDS011;5494;51.796;10.952;2022-07-29T09:27:10;8.63;;;2.50;;
10882;SDS011;5494;51.796;10.952;2022-07-29T09:29:55;8.47;;;2.23;;
10882;SDS011;5494;51.796;10.952;2022-07-29T09:32:26;11.07;;;3.00;;
10882;SDS011;5494;51.796;10.952;2022-07-29T09:35:15;4.97;;;2.60;;
10882;SDS011;5494;51.796;10.952;2022-07-29T09:37:46;18.77;;;3.57;;
10882;SDS011;5494;51.796;10.952;2022-07-29T09:40:18;7.13;;;2.33;;
10882;SDS011;5494;51.796;10.952;2022-07-29T09:42:49;6.83;;;2.20;;
10882;SDS011;5494;51.796;10.952;2022-07-29T09:45:28;5.67;;;2.30;;
10882;SDS011;5494;51.796;10.952;2022-07-29T09:47:59;6.37;;;2.30;;
10882;SDS011;5494;51.796;10.952;2022-07-29T09:50:42;6.20;;;2.27;;
10882;SDS011;5494;51.796;10.952;2022-07-29T09:53:18;10.47;;;2.37;;
10882;SDS011;5494;51.796;10.952;2022-07-29T09:56:00;8.33;;;2.67;;
10882;SDS011;5494;51.796;10.952;2022-07-29T09:58:28;5.03;;;2.00;;
10882;SDS011;5494;51.796;10.952;2022-07-29T10:00:57;4.67;;;2.50;;
10882;SDS011;5494;51.796;10.952;2022-07-29T10:03:26;7.20;;;2.40;;
10882;SDS011;5494;51.796;10.952;2022-07-29T10:06:04;8.43;;;2.73;;
10882;SDS011;5494;51.796;10.952;2022-07-29T10:08:35;3.30;;;1.70;;
10882;SDS011;5494;51.796;10.952;2022-07-29T10:11:12;3.50;;;2.10;;
10882;SDS011;5494;51.796;10.952;2022-07-29T10:13:43;24.50;;;3.20;;
10882;SDS011;5494;51.796;10.952;2022-07-29T10:16:14;8.13;;;2.40;;
10882;SDS011;5494;51.796;10.952;2022-07-29T10:18:44;2.83;;;2.10;;
10882;SDS011;5494;51.796;10.952;2022-07-29T10:21:13;9.40;;;2.50;;
10882;SDS011;5494;51.796;10.952;2022-07-29T10:24:02;5.40;;;2.53;;
10882;SDS011;5494;51.796;10.952;2022-07-29T10:26:42;6.33;;;2.60;;
10882;SDS011;5494;51.796;10.952;2022-07-29T10:29:13;12.27;;;3.03;;
10882;SDS011;5494;51.796;10.952;2022-07-29T10:31:43;6.17;;;2.70;;
10882;SDS011;5494;51.796;10.952;2022-07-29T10:34:31;7.13;;;2.77;;
10882;SDS011;5494;51.796;10.952;2022-07-29T10:37:22;6.20;;;3.00;;
10882;SDS011;5494;51.796;10.952;2022-07-29T10:40:15;3.23;;;2.17;;
10882;SDS011;5494;51.796;10.952;2022-07-29T10:43:16;5.50;;;2.67;;
10882;SDS011;5494;51.796;10.952;2022-07-29T10:45:55;5.00;;;2.60;;
10882;SDS011;5494;51.796;10.952;2022-07-29T10:48:26;6.03;;;2.87;;
10882;SDS011;5494;51.796;10.952;2022-07-29T10:50:56;7.33;;;2.70;;
10882;SDS011;5494;51.796;10.952;2022-07-29T10:53:48;3.77;;;2.63;;
10882;SDS011;5494;51.796;10.952;2022-07-29T10:56:23;4.30;;;2.90;;
10882;SDS011;5494;51.796;10.952;2022-07-29T11:02:02;9.80;;;3.20;;
10882;SDS011;5494;51.796;10.952;2022-07-29T11:05:16;5.07;;;3.10;;
10882;SDS011;5494;51.796;10.952;2022-07-29T11:10:53;5.07;;;3.27;;
10882;SDS011;5494;51.796;10.952;2022-07-29T11:14:03;6.83;;;3.10;;
10882;SDS011;5494;51.796;10.952;2022-07-29T11:19:51;7.00;;;3.80;;
10882;SDS011;5494;51.796;10.952;2022-07-29T11:22:40;4.97;;;3.87;;
10882;SDS011;5494;51.796;10.952;2022-07-29T11:25:13;6.47;;;4.07;;
10882;SDS011;5494;51.796;10.952;2022-07-29T11:27:43;4.90;;;4.23;;
10882;SDS011;5494;51.796;10.952;2022-07-29T11:30:13;6.47;;;3.90;;
10882;SDS011;5494;51.796;10.952;2022-07-29T11:32:44;4.50;;;3.97;;
10882;SDS011;5494;51.796;10.952;2022-07-29T11:35:15;6.83;;;4.40;;
10882;SDS011;5494;51.796;10.952;2022-07-29T11:38:23;7.80;;;4.90;;
10882;SDS011;5494;51.796;10.952;2022-07-29T11:41:20;7.47;;;4.83;;
10882;SDS011;5494;51.796;10.952;2022-07-29T11:43:53;10.87;;;4.87;;
10882;SDS011;5494;51.796;10.952;2022-07-29T11:46:43;8.73;;;5.00;;
10882;SDS011;5494;51.796;10.952;2022-07-29T11:49:20;10.03;;;4.50;;
10882;SDS011;5494;51.796;10.952;2022-07-29T11:52:09;7.03;;;4.47;;
10882;SDS011;5494;51.796;10.952;2022-07-29T11:54:38;9.17;;;5.53;;
10882;SDS011;5494;51.796;10.952;2022-07-29T11:57:26;6.80;;;4.30;;
10882;SDS011;5494;51.796;10.952;2022-07-29T12:00:03;7.87;;;4.50;;
10882;SDS011;5494;51.796;10.952;2022-07-29T12:02:56;36.00;;;7.37;;
10882;SDS011;5494;51.796;10.952;2022-07-29T12:05:33;8.07;;;4.50;;
10882;SDS011;5494;51.796;10.952;2022-07-29T12:08:14;6.27;;;4.00;;
10882;SDS011;5494;51.796;10.952;2022-07-29T12:10:47;7.63;;;4.30;;
10882;SDS011;5494;51.796;10.952;2022-07-29T12:13:19;5.43;;;4.33;;
10882;SDS011;5494;51.796;10.952;2022-07-29T12:16:03;14.60;;;4.47;;
10882;SDS011;5494;51.796;10.952;2022-07-29T12:18:32;7.47;;;4.07;;
10882;SDS011;5494;51.796;10.952;2022-07-29T12:21:02;20.63;;;5.03;;
10882;SDS011;5494;51.796;10.952;2022-07-29T12:23:31;10.20;;;4.00;;
10882;SDS011;5494;51.796;10.952;2022-07-29T12:26:03;6.77;;;3.83;;
10882;SDS011;5494;51.796;10.952;2022-07-29T12:28:47;11.20;;;3.23;;
10882;SDS011;5494;51.796;10.952;2022-07-29T12:31:16;6.53;;;3.77;;
10882;SDS011;5494;51.796;10.952;2022-07-29T12:34:04;7.07;;;3.30;;
10882;SDS011;5494;51.796;10.952;2022-07-29T12:36:35;7.50;;;3.47;;
10882;SDS011;5494;51.796;10.952;2022-07-29T12:39:04;4.97;;;3.63;;
10882;SDS011;5494;51.796;10.952;2022-07-29T12:41:32;5.47;;;3.30;;
10882;SDS011;5494;51.796;10.952;2022-07-29T12:44:02;7.20;;;3.40;;
10882;SDS011;5494;51.796;10.952;2022-07-29T12:46:31;5.00;;;3.27;;
10882;SDS011;5494;51.796;10.952;2022-07-29T12:49:00;7.90;;;3.23;;
10882;SDS011;5494;51.796;10.952;2022-07-29T12:51:30;6.03;;;3.40;;
10882;SDS011;5494;51.796;10.952;2022-07-29T12:54:06;6.27;;;3.23;;
10882;SDS011;5494;51.796;10.952;2022-07-29T12:56:37;4.50;;;3.43;;
10882;SDS011;5494;51.796;10.952;2022-07-29T12:59:13;4.63;;;3.40;;
10882;SDS011;5494;51.796;10.952;2022-07-29T13:01:44;4.90;;;3.33;;
10882;SDS011;5494;51.796;10.952;2022-07-29T13:04:25;8.73;;;3.23;;
10882;SDS011;5494;51.796;10.952;2022-07-29T13:07:00;6.30;;;3.57;;
10882;SDS011;5494;51.796;10.952;2022-07-29T13:09:39;4.47;;;3.40;;
10882;SDS011;5494;51.796;10.952;2022-07-29T13:12:10;6.07;;;3.00;;
10882;SDS011;5494;51.796;10.952;2022-07-29T13:14:41;4.50;;;3.30;;
10882;SDS011;5494;51.796;10.952;2022-07-29T13:17:12;9.10;;;3.97;;
10882;SDS011;5494;51.796;10.952;2022-07-29T13:19:43;8.73;;;3.30;;
10882;SDS011;5494;51.796;10.952;2022-07-29T13:22:15;5.70;;;3.07;;
10882;SDS011;5494;51.796;10.952;2022-07-29T13:24:46;4.60;;;3.53;;
10882;SDS011;5494;51.796;10.952;2022-07-29T13:27:17;10.87;;;3.80;;
10882;SDS011;5494;51.796;10.952;2022-07-29T13:29:47;4.80;;;2.80;;
10882;SDS011;5494;51.796;10.952;2022-07-29T13:32:18;4.93;;;2.80;;
10882;SDS011;5494;51.796;10.952;2022-07-29T13:34:54;4.73;;;3.07;;
10882;SDS011;5494;51.796;10.952;2022-07-29T13:37:24;8.27;;;3.23;;
10882;SDS011;5494;51.796;10.952;2022-07-29T13:39:58;6.30;;;2.87;;
10882;SDS011;5494;51.796;10.952;2022-07-29T13:42:26;3.20;;;2.90;;
10882;SDS011;5494;51.796;10.952;2022-07-29T13:44:55;6.47;;;3.10;;
10882;SDS011;5494;51.796;10.952;2022-07-29T13:47:23;4.47;;;2.93;;
10882;SDS011;5494;51.796;10.952;2022-07-29T13:49:59;6.70;;;3.20;;
10882;SDS011;5494;51.796;10.952;2022-07-29T13:52:29;2.83;;;2.50;;
10882;SDS011;5494;51.796;10.952;2022-07-29T13:54:58;10.07;;;3.00;;
10882;SDS011;5494;51.796;10.952;2022-07-29T13:57:27;13.13;;;3.47;;
10882;SDS011;5494;51.796;10.952;2022-07-29T13:59:56;8.33;;;3.20;;
10882;SDS011;5494;51.796;10.952;2022-07-29T14:02:25;4.27;;;2.93;;
10882;SDS011;5494;51.796;10.952;2022-07-29T14:04:53;3.40;;;2.70;;
10882;SDS011;5494;51.796;10.952;2022-07-29T14:07:22;5.30;;;3.23;;
10882;SDS011;5494;51.796;10.952;2022-07-29T14:09:51;4.93;;;3.33;;
10882;SDS011;5494;51.796;10.952;2022-07-29T14:12:20;5.50;;;2.63;;
10882;SDS011;5494;51.796;10.952;2022-07-29T14:14:49;4.17;;;2.60;;
10882;SDS011;5494;51.796;10.952;2022-07-29T14:17:17;12.93;;;3.30;;
10882;SDS011;5494;51.796;10.952;2022-07-29T14:19:46;4.80;;;2.87;;
10882;SDS011;5494;51.796;10.952;2022-07-29T14:22:14;8.97;;;3.70;;
10882;SDS011;5494;51.796;10.952;2022-07-29T14:24:48;5.27;;;3.10;;
10882;SDS011;5494;51.796;10.952;2022-07-29T14:27:17;3.93;;;3.10;;
10882;SDS011;5494;51.796;10.952;2022-07-29T14:30:06;8.27;;;3.00;;
10882;SDS011;5494;51.796;10.952;2022-07-29T14:32:36;7.83;;;3.10;;
10882;SDS011;5494;51.796;10.952;2022-07-29T14:35:05;3.40;;;3.00;;
10882;SDS011;5494;51.796;10.952;2022-07-29T14:37:35;4.90;;;3.07;;
10882;SDS011;5494;51.796;10.952;2022-07-29T14:40:06;6.73;;;3.17;;
10882;SDS011;5494;51.796;10.952;2022-07-29T14:42:36;7.00;;;3.07;;
10882;SDS011;5494;51.796;10.952;2022-07-29T14:45:08;7.57;;;3.27;;
10882;SDS011;5494;51.796;10.952;2022-07-29T14:47:37;5.50;;;3.17;;
10882;SDS011;5494;51.796;10.952;2022-07-29T14:50:07;5.93;;;3.13;;
10882;SDS011;5494;51.796;10.952;2022-07-29T14:52:37;3.73;;;2.73;;
10882;SDS011;5494;51.796;10.952;2022-07-29T14:55:06;5.07;;;3.33;;
10882;SDS011;5494;51.796;10.952;2022-07-29T14:57:46;4.03;;;2.90;;
10882;SDS011;5494;51.796;10.952;2022-07-29T15:00:18;3.40;;;3.03;;
10882;SDS011;5494;51.796;10.952;2022-07-29T15:02:47;6.13;;;2.93;;
10882;SDS011;5494;51.796;10.952;2022-07-29T15:05:28;5.10;;;3.07;;
10882;SDS011;5494;51.796;10.952;2022-07-29T15:07:58;3.50;;;2.73;;
10882;SDS011;5494;51.796;10.952;2022-07-29T15:10:27;6.80;;;2.87;;
10882;SDS011;5494;51.796;10.952;2022-07-29T15:12:56;3.73;;;2.63;;
10882;SDS011;5494;51.796;10.952;2022-07-29T15:15:26;4.70;;;2.77;;
10882;SDS011;5494;51.796;10.952;2022-07-29T15:17:54;4.50;;;2.53;;
10882;SDS011;5494;51.796;10.952;2022-07-29T15:20:23;5.47;;;3.00;;
10882;SDS011;5494;51.796;10.952;2022-07-29T15:22:53;3.73;;;2.80;;
10882;SDS011;5494;51.796;10.952;2022-07-29T15:25:22;6.30;;;2.80;;
10882;SDS011;5494;51.796;10.952;2022-07-29T15:27:54;4.50;;;2.87;;
10882;SDS011;5494;51.796;10.952;2022-07-29T15:30:29;5.53;;;2.90;;
10882;SDS011;5494;51.796;10.952;2022-07-29T15:33:00;2.60;;;2.40;;